sensor_id;sensor_type;location;lat;lon;timestamp;P1;durP1;ratioP1;P2;durP2;ratioP2
64011;SDS011;50211;52.768;12.124;2023-03-17T00:00:09;4.23;;;2.60;;
64011;SDS011;50211;52.768;12.124;2023-03-17T00:02:38;6.30;;;2.63;;
64011;SDS011;50211;52.768;12.124;2023-03-17T00:05:23;8.50;;;3.20;;
64011;SDS011;50211;52.768;12.124;2023-03-17T00:07:52;5.50;;;2.90;;
64011;SDS011;50211;52.768;12.124;2023-03-17T00:10:20;4.87;;;2.73;;
64011;SDS011;50211;52.768;12.124;2023-03-17T00:12:49;6.70;;;2.73;;
64011;SDS011;50211;52.768;12.124;2023-03-17T00:15:17;7.00;;;2.73;;
64011;SDS011;50211;52.768;12.124;2023-03-17T00:17:44;6.53;;;2.80;;
64011;SDS011;50211;52.768;12.124;2023-03-17T00:20:44;6.57;;;2.63;;
64011;SDS011;50211;52.768;12.124;2023-03-17T00:23:03;5.73;;;2.57;;
64011;SDS011;50211;52.768;12.124;2023-03-17T00:25:30;6.10;;;2.60;;
64011;SDS011;50211;52.768;12.124;2023-03-17T00:27:57;10.90;;;2.80;;
64011;SDS011;50211;52.768;12.124;2023-03-17T00:30:24;5.87;;;3.33;;
64011;SDS011;50211;52.768;12.124;2023-03-17T00:32:51;9.27;;;2.80;;
64011;SDS011;50211;52.768;12.124;2023-03-17T00:35:24;9.10;;;3.00;;
64011;SDS011;50211;52.768;12.124;2023-03-17T00:37:52;9.23;;;2.63;;
64011;SDS011;50211;52.768;12.124;2023-03-17T00:40:29;4.60;;;2.43;;
64011;SDS011;50211;52.768;12.124;2023-03-17T00:42:55;11.00;;;3.03;;
64011;SDS011;50211;52.768;12.124;2023-03-17T00:45:24;7.43;;;2.60;;
64011;SDS011;50211;52.768;12.124;2023-03-17T00:47:52;5.30;;;2.90;;
64011;SDS011;50211;52.768;12.124;2023-03-17T00:50:21;5.60;;;2.53;;
64011;SDS011;50211;52.768;12.124;2023-03-17T00:52:48;6.63;;;2.70;;
64011;SDS011;50211;52.768;12.124;2023-03-17T00:55:16;4.57;;;2.33;;
64011;SDS011;50211;52.768;12.124;2023-03-17T00:57:43;4.43;;;2.20;;
64011;SDS011;50211;52.768;12.124;2023-03-17T01:02:52;5.23;;;2.60;;
64011;SDS011;50211;52.768;12.124;2023-03-17T01:05:19;5.27;;;2.43;;
64011;SDS011;50211;52.768;12.124;2023-03-17T01:07:47;5.67;;;2.40;;
64011;SDS011;50211;52.768;12.124;2023-03-17T01:10:18;7.10;;;2.60;;
64011;SDS011;50211;52.768;12.124;2023-03-17T01:12:50;4.43;;;2.30;;
64011;SDS011;50211;52.768;12.124;2023-03-17T01:15:16;4.87;;;2.87;;
64011;SDS011;50211;52.768;12.124;2023-03-17T01:17:43;5.33;;;2.57;;
64011;SDS011;50211;52.768;12.124;2023-03-17T01:20:11;7.90;;;3.43;;
64011;SDS011;50211;52.768;12.124;2023-03-17T01:22:41;8.63;;;2.73;;
64011;SDS011;50211;52.768;12.124;2023-03-17T01:25:08;6.77;;;2.80;;
64011;SDS011;50211;52.768;12.124;2023-03-17T01:27:35;3.70;;;2.17;;
64011;SDS011;50211;52.768;12.124;2023-03-17T01:30:01;5.67;;;2.23;;
64011;SDS011;50211;52.768;12.124;2023-03-17T01:32:28;5.67;;;2.40;;
64011;SDS011;50211;52.768;12.124;2023-03-17T01:34:53;4.73;;;2.60;;
64011;SDS011;50211;52.768;12.124;2023-03-17T01:37:18;4.27;;;2.70;;
64011;SDS011;50211;52.768;12.124;2023-03-17T01:39:45;4.50;;;2.73;;
64011;SDS011;50211;52.768;12.124;2023-03-17T01:42:11;9.37;;;3.50;;
64011;SDS011;50211;52.768;12.124;2023-03-17T01:44:55;7.30;;;2.90;;
64011;SDS011;50211;52.768;12.124;2023-03-17T01:47:26;6.37;;;2.83;;
64011;SDS011;50211;52.768;12.124;2023-03-17T01:49:55;4.70;;;2.83;;
64011;SDS011;50211;52.768;12.124;2023-03-17T01:52:26;11.00;;;2.93;;
64011;SDS011;50211;52.768;12.124;2023-03-17T01:57:28;6.80;;;2.63;;
64011;SDS011;50211;52.768;12.124;2023-03-17T02:00:05;4.80;;;2.23;;
64011;SDS011;50211;52.768;12.124;2023-03-17T02:02:44;4.93;;;2.70;;
64011;SDS011;50211;52.768;12.124;2023-03-17T02:05:16;5.00;;;2.33;;
64011;SDS011;50211;52.768;12.124;2023-03-17T02:07:44;12.10;;;3.27;;
64011;SDS011;50211;52.768;12.124;2023-03-17T02:10:10;5.17;;;2.70;;
64011;SDS011;50211;52.768;12.124;2023-03-17T02:12:38;4.93;;;2.37;;
64011;SDS011;50211;52.768;12.124;2023-03-17T02:15:05;4.40;;;2.67;;
64011;SDS011;50211;52.768;12.124;2023-03-17T02:17:32;4.50;;;2.53;;
64011;SDS011;50211;52.768;12.124;2023-03-17T02:22:48;6.50;;;2.17;;
64011;SDS011;50211;52.768;12.124;2023-03-17T02:25:16;8.67;;;2.67;;
64011;SDS011;50211;52.768;12.124;2023-03-17T02:27:44;5.07;;;2.70;;
64011;SDS011;50211;52.768;12.124;2023-03-17T02:30:17;4.17;;;2.63;;
64011;SDS011;50211;52.768;12.124;2023-03-17T02:32:44;7.67;;;2.10;;
64011;SDS011;50211;52.768;12.124;2023-03-17T02:35:11;5.77;;;2.43;;
64011;SDS011;50211;52.768;12.124;2023-03-17T02:37:36;4.17;;;2.07;;
64011;SDS011;50211;52.768;12.124;2023-03-17T02:40:02;5.87;;;2.50;;
64011;SDS011;50211;52.768;12.124;2023-03-17T02:42:29;8.90;;;2.50;;
64011;SDS011;50211;52.768;12.124;2023-03-17T02:44:55;6.90;;;2.53;;
64011;SDS011;50211;52.768;12.124;2023-03-17T02:47:21;7.33;;;2.60;;
64011;SDS011;50211;52.768;12.124;2023-03-17T02:49:46;7.57;;;2.50;;
64011;SDS011;50211;52.768;12.124;2023-03-17T02:52:13;4.63;;;2.50;;
64011;SDS011;50211;52.768;12.124;2023-03-17T02:54:39;5.47;;;2.37;;
64011;SDS011;50211;52.768;12.124;2023-03-17T02:57:05;7.20;;;2.40;;
64011;SDS011;50211;52.768;12.124;2023-03-17T02:59:32;8.97;;;2.73;;
64011;SDS011;50211;52.768;12.124;2023-03-17T03:01:58;4.60;;;2.30;;
64011;SDS011;50211;52.768;12.124;2023-03-17T03:04:24;5.57;;;2.47;;
64011;SDS011;50211;52.768;12.124;2023-03-17T03:06:51;9.93;;;2.93;;
64011;SDS011;50211;52.768;12.124;2023-03-17T03:09:17;7.33;;;2.63;;
64011;SDS011;50211;52.768;12.124;2023-03-17T03:11:44;4.70;;;2.30;;
64011;SDS011;50211;52.768;12.124;2023-03-17T03:14:10;6.30;;;2.63;;
64011;SDS011;50211;52.768;12.124;2023-03-17T03:16:36;7.80;;;2.60;;
64011;SDS011;50211;52.768;12.124;2023-03-17T03:19:02;7.53;;;2.43;;
64011;SDS011;50211;52.768;12.124;2023-03-17T03:21:28;10.90;;;2.27;;
64011;SDS011;50211;52.768;12.124;2023-03-17T03:23:53;8.40;;;2.63;;
64011;SDS011;50211;52.768;12.124;2023-03-17T03:26:19;6.97;;;2.67;;
64011;SDS011;50211;52.768;12.124;2023-03-17T03:28:45;5.47;;;2.27;;
64011;SDS011;50211;52.768;12.124;2023-03-17T03:31:11;4.50;;;2.00;;
64011;SDS011;50211;52.768;12.124;2023-03-17T03:33:37;13.03;;;2.33;;
64011;SDS011;50211;52.768;12.124;2023-03-17T03:36:04;6.30;;;2.33;;
64011;SDS011;50211;52.768;12.124;2023-03-17T03:38:30;5.83;;;2.00;;
64011;SDS011;50211;52.768;12.124;2023-03-17T03:40:56;7.77;;;2.43;;
64011;SDS011;50211;52.768;12.124;2023-03-17T03:43:21;6.53;;;2.30;;
64011;SDS011;50211;52.768;12.124;2023-03-17T03:45:47;5.57;;;1.83;;
64011;SDS011;50211;52.768;12.124;2023-03-17T03:48:12;10.20;;;2.40;;
64011;SDS011;50211;52.768;12.124;2023-03-17T03:50:38;7.63;;;2.33;;
64011;SDS011;50211;52.768;12.124;2023-03-17T03:53:03;4.70;;;2.00;;
64011;SDS011;50211;52.768;12.124;2023-03-17T03:55:29;3.63;;;2.30;;
64011;SDS011;50211;52.768;12.124;2023-03-17T03:57:54;7.40;;;2.57;;
64011;SDS011;50211;52.768;12.124;2023-03-17T04:00:20;7.53;;;2.60;;
64011;SDS011;50211;52.768;12.124;2023-03-17T04:02:46;5.83;;;2.43;;
64011;SDS011;50211;52.768;12.124;2023-03-17T04:05:15;3.87;;;2.40;;
64011;SDS011;50211;52.768;12.124;2023-03-17T04:07:42;4.93;;;2.50;;
64011;SDS011;50211;52.768;12.124;2023-03-17T04:10:11;9.67;;;2.90;;
64011;SDS011;50211;52.768;12.124;2023-03-17T04:12:38;6.37;;;2.43;;
64011;SDS011;50211;52.768;12.124;2023-03-17T04:15:04;3.03;;;2.00;;
64011;SDS011;50211;52.768;12.124;2023-03-17T04:17:31;8.57;;;2.30;;
64011;SDS011;50211;52.768;12.124;2023-03-17T04:19:56;4.40;;;1.90;;
64011;SDS011;50211;52.768;12.124;2023-03-17T04:22:22;5.50;;;2.47;;
64011;SDS011;50211;52.768;12.124;2023-03-17T04:24:48;5.93;;;2.47;;
64011;SDS011;50211;52.768;12.124;2023-03-17T04:27:14;12.73;;;3.17;;
64011;SDS011;50211;52.768;12.124;2023-03-17T04:29:41;3.97;;;2.10;;
64011;SDS011;50211;52.768;12.124;2023-03-17T04:32:07;7.90;;;2.27;;
64011;SDS011;50211;52.768;12.124;2023-03-17T04:34:35;5.13;;;2.30;;
64011;SDS011;50211;52.768;12.124;2023-03-17T04:37:00;4.60;;;2.73;;
64011;SDS011;50211;52.768;12.124;2023-03-17T04:39:26;5.70;;;2.40;;
64011;SDS011;50211;52.768;12.124;2023-03-17T04:41:51;3.93;;;2.07;;
64011;SDS011;50211;52.768;12.124;2023-03-17T04:44:17;9.00;;;2.97;;
64011;SDS011;50211;52.768;12.124;2023-03-17T04:46:43;3.30;;;2.23;;
64011;SDS011;50211;52.768;12.124;2023-03-17T04:49:08;3.50;;;2.47;;
64011;SDS011;50211;52.768;12.124;2023-03-17T04:51:34;5.30;;;2.37;;
64011;SDS011;50211;52.768;12.124;2023-03-17T04:54:00;4.70;;;2.43;;
64011;SDS011;50211;52.768;12.124;2023-03-17T04:56:26;4.20;;;2.30;;
64011;SDS011;50211;52.768;12.124;2023-03-17T04:58:52;5.07;;;2.27;;
64011;SDS011;50211;52.768;12.124;2023-03-17T05:01:19;6.17;;;2.50;;
64011;SDS011;50211;52.768;12.124;2023-03-17T05:03:45;5.60;;;2.27;;
64011;SDS011;50211;52.768;12.124;2023-03-17T05:06:11;7.50;;;2.37;;
64011;SDS011;50211;52.768;12.124;2023-03-17T05:08:36;5.37;;;2.60;;
64011;SDS011;50211;52.768;12.124;2023-03-17T05:11:02;5.60;;;2.67;;
64011;SDS011;50211;52.768;12.124;2023-03-17T05:13:28;4.17;;;2.67;;
64011;SDS011;50211;52.768;12.124;2023-03-17T05:15:54;8.03;;;2.43;;
64011;SDS011;50211;52.768;12.124;2023-03-17T05:18:21;7.10;;;2.30;;
64011;SDS011;50211;52.768;12.124;2023-03-17T05:20:48;9.53;;;2.93;;
64011;SDS011;50211;52.768;12.124;2023-03-17T05:23:14;5.37;;;2.10;;
64011;SDS011;50211;52.768;12.124;2023-03-17T05:25:40;8.37;;;2.10;;
64011;SDS011;50211;52.768;12.124;2023-03-17T05:28:06;6.83;;;2.43;;
64011;SDS011;50211;52.768;12.124;2023-03-17T05:30:33;5.83;;;2.93;;
64011;SDS011;50211;52.768;12.124;2023-03-17T05:33:00;4.43;;;2.43;;
64011;SDS011;50211;52.768;12.124;2023-03-17T05:35:26;4.03;;;2.60;;
64011;SDS011;50211;52.768;12.124;2023-03-17T05:37:52;8.47;;;2.57;;
64011;SDS011;50211;52.768;12.124;2023-03-17T05:40:17;5.83;;;2.53;;
64011;SDS011;50211;52.768;12.124;2023-03-17T05:42:43;3.33;;;2.17;;
64011;SDS011;50211;52.768;12.124;2023-03-17T05:45:08;6.63;;;2.40;;
64011;SDS011;50211;52.768;12.124;2023-03-17T05:47:34;4.83;;;2.80;;
64011;SDS011;50211;52.768;12.124;2023-03-17T05:50:00;11.23;;;2.47;;
64011;SDS011;50211;52.768;12.124;2023-03-17T05:52:26;7.23;;;3.17;;
64011;SDS011;50211;52.768;12.124;2023-03-17T05:54:52;9.93;;;2.90;;
64011;SDS011;50211;52.768;12.124;2023-03-17T05:57:19;5.53;;;2.90;;
64011;SDS011;50211;52.768;12.124;2023-03-17T05:59:45;4.60;;;2.60;;
64011;SDS011;50211;52.768;12.124;2023-03-17T06:02:11;10.57;;;2.60;;
64011;SDS011;50211;52.768;12.124;2023-03-17T06:04:37;5.90;;;2.80;;
64011;SDS011;50211;52.768;12.124;2023-03-17T06:07:03;4.80;;;2.27;;
64011;SDS011;50211;52.768;12.124;2023-03-17T06:09:30;3.43;;;2.40;;
64011;SDS011;50211;52.768;12.124;2023-03-17T06:11:56;5.63;;;2.30;;
64011;SDS011;50211;52.768;12.124;2023-03-17T06:14:21;7.10;;;2.80;;
64011;SDS011;50211;52.768;12.124;2023-03-17T06:16:47;6.53;;;2.73;;
64011;SDS011;50211;52.768;12.124;2023-03-17T06:19:12;8.80;;;2.63;;
64011;SDS011;50211;52.768;12.124;2023-03-17T06:21:38;7.67;;;2.90;;
64011;SDS011;50211;52.768;12.124;2023-03-17T06:24:04;3.73;;;2.30;;
64011;SDS011;50211;52.768;12.124;2023-03-17T06:26:29;5.40;;;3.27;;
64011;SDS011;50211;52.768;12.124;2023-03-17T06:28:55;4.50;;;2.47;;
64011;SDS011;50211;52.768;12.124;2023-03-17T06:31:21;4.90;;;2.43;;
64011;SDS011;50211;52.768;12.124;2023-03-17T06:33:47;5.83;;;2.63;;
64011;SDS011;50211;52.768;12.124;2023-03-17T06:36:13;6.23;;;2.50;;
64011;SDS011;50211;52.768;12.124;2023-03-17T06:38:38;4.53;;;2.27;;
64011;SDS011;50211;52.768;12.124;2023-03-17T06:41:04;7.47;;;2.90;;
64011;SDS011;50211;52.768;12.124;2023-03-17T06:43:30;5.93;;;2.80;;
64011;SDS011;50211;52.768;12.124;2023-03-17T06:45:56;5.57;;;2.57;;
64011;SDS011;50211;52.768;12.124;2023-03-17T06:48:22;6.73;;;2.60;;
64011;SDS011;50211;52.768;12.124;2023-03-17T06:50:47;7.93;;;2.40;;
64011;SDS011;50211;52.768;12.124;2023-03-17T06:53:14;3.10;;;1.90;;
64011;SDS011;50211;52.768;12.124;2023-03-17T06:55:40;5.53;;;2.53;;
64011;SDS011;50211;52.768;12.124;2023-03-17T06:58:06;4.00;;;2.50;;
64011;SDS011;50211;52.768;12.124;2023-03-17T07:00:33;4.73;;;2.53;;
64011;SDS011;50211;52.768;12.124;2023-03-17T07:02:58;5.43;;;2.87;;
64011;SDS011;50211;52.768;12.124;2023-03-17T07:05:24;4.50;;;2.00;;
64011;SDS011;50211;52.768;12.124;2023-03-17T07:07:50;5.10;;;2.90;;
64011;SDS011;50211;52.768;12.124;2023-03-17T07:10:15;3.83;;;2.40;;
64011;SDS011;50211;52.768;12.124;2023-03-17T07:12:41;9.83;;;2.83;;
64011;SDS011;50211;52.768;12.124;2023-03-17T07:15:08;9.93;;;2.77;;
64011;SDS011;50211;52.768;12.124;2023-03-17T07:17:35;3.77;;;2.20;;
64011;SDS011;50211;52.768;12.124;2023-03-17T07:20:00;5.90;;;2.50;;
64011;SDS011;50211;52.768;12.124;2023-03-17T07:22:26;3.90;;;2.30;;
64011;SDS011;50211;52.768;12.124;2023-03-17T07:24:51;5.30;;;2.63;;
64011;SDS011;50211;52.768;12.124;2023-03-17T07:27:17;5.30;;;2.97;;
64011;SDS011;50211;52.768;12.124;2023-03-17T07:29:43;5.10;;;1.93;;
64011;SDS011;50211;52.768;12.124;2023-03-17T07:32:08;3.77;;;1.90;;
64011;SDS011;50211;52.768;12.124;2023-03-17T07:34:35;5.50;;;2.20;;
64011;SDS011;50211;52.768;12.124;2023-03-17T07:37:00;3.00;;;2.20;;
64011;SDS011;50211;52.768;12.124;2023-03-17T07:39:27;4.23;;;2.27;;
64011;SDS011;50211;52.768;12.124;2023-03-17T07:41:52;4.53;;;2.33;;
64011;SDS011;50211;52.768;12.124;2023-03-17T07:44:19;4.43;;;2.30;;
64011;SDS011;50211;52.768;12.124;2023-03-17T07:46:46;3.70;;;2.13;;
64011;SDS011;50211;52.768;12.124;2023-03-17T07:49:12;2.93;;;2.20;;
64011;SDS011;50211;52.768;12.124;2023-03-17T07:51:38;3.47;;;2.20;;
64011;SDS011;50211;52.768;12.124;2023-03-17T07:54:07;5.73;;;1.93;;
64011;SDS011;50211;52.768;12.124;2023-03-17T07:56:33;5.63;;;2.40;;
64011;SDS011;50211;52.768;12.124;2023-03-17T07:58:59;3.87;;;1.83;;
64011;SDS011;50211;52.768;12.124;2023-03-17T08:01:25;4.17;;;2.07;;
64011;SDS011;50211;52.768;12.124;2023-03-17T08:03:52;7.30;;;2.43;;
64011;SDS011;50211;52.768;12.124;2023-03-17T08:06:18;4.67;;;2.00;;
64011;SDS011;50211;52.768;12.124;2023-03-17T08:08:43;3.00;;;2.37;;
64011;SDS011;50211;52.768;12.124;2023-03-17T08:11:10;5.63;;;2.20;;
64011;SDS011;50211;52.768;12.124;2023-03-17T08:13:35;4.70;;;2.50;;
64011;SDS011;50211;52.768;12.124;2023-03-17T08:16:01;5.63;;;2.23;;
64011;SDS011;50211;52.768;12.124;2023-03-17T08:18:26;2.93;;;1.90;;
64011;SDS011;50211;52.768;12.124;2023-03-17T08:20:52;4.47;;;1.97;;
64011;SDS011;50211;52.768;12.124;2023-03-17T08:23:18;4.33;;;2.67;;
64011;SDS011;50211;52.768;12.124;2023-03-17T08:25:43;5.00;;;2.23;;
64011;SDS011;50211;52.768;12.124;2023-03-17T08:28:09;5.50;;;2.70;;
64011;SDS011;50211;52.768;12.124;2023-03-17T08:30:35;3.70;;;2.40;;
64011;SDS011;50211;52.768;12.124;2023-03-17T08:33:02;4.13;;;2.40;;
64011;SDS011;50211;52.768;12.124;2023-03-17T08:35:28;8.07;;;2.00;;
64011;SDS011;50211;52.768;12.124;2023-03-17T08:37:54;7.20;;;2.50;;
64011;SDS011;50211;52.768;12.124;2023-03-17T08:40:20;5.60;;;2.47;;
64011;SDS011;50211;52.768;12.124;2023-03-17T08:42:46;4.10;;;2.43;;
64011;SDS011;50211;52.768;12.124;2023-03-17T08:45:13;4.20;;;2.30;;
64011;SDS011;50211;52.768;12.124;2023-03-17T08:47:40;5.50;;;2.30;;
64011;SDS011;50211;52.768;12.124;2023-03-17T08:50:07;5.67;;;2.40;;
64011;SDS011;50211;52.768;12.124;2023-03-17T08:52:35;3.07;;;2.30;;
64011;SDS011;50211;52.768;12.124;2023-03-17T08:55:00;3.40;;;1.97;;
64011;SDS011;50211;52.768;12.124;2023-03-17T08:57:27;3.27;;;2.07;;
64011;SDS011;50211;52.768;12.124;2023-03-17T08:59:52;6.10;;;2.50;;
64011;SDS011;50211;52.768;12.124;2023-03-17T09:02:18;4.30;;;2.50;;
64011;SDS011;50211;52.768;12.124;2023-03-17T09:04:44;3.70;;;2.10;;
64011;SDS011;50211;52.768;12.124;2023-03-17T09:07:10;5.60;;;2.50;;
64011;SDS011;50211;52.768;12.124;2023-03-17T09:09:37;5.50;;;2.20;;
64011;SDS011;50211;52.768;12.124;2023-03-17T09:12:03;5.13;;;2.50;;
64011;SDS011;50211;52.768;12.124;2023-03-17T09:14:31;3.63;;;2.23;;
64011;SDS011;50211;52.768;12.124;2023-03-17T09:16:57;2.40;;;1.70;;
64011;SDS011;50211;52.768;12.124;2023-03-17T09:19:23;4.17;;;2.13;;
64011;SDS011;50211;52.768;12.124;2023-03-17T09:21:49;4.73;;;1.90;;
64011;SDS011;50211;52.768;12.124;2023-03-17T09:24:15;4.77;;;2.07;;
64011;SDS011;50211;52.768;12.124;2023-03-17T09:26:42;2.73;;;2.10;;
64011;SDS011;50211;52.768;12.124;2023-03-17T09:29:07;5.00;;;2.10;;
64011;SDS011;50211;52.768;12.124;2023-03-17T09:31:33;5.60;;;2.17;;
64011;SDS011;50211;52.768;12.124;2023-03-17T09:34:03;5.23;;;1.97;;
64011;SDS011;50211;52.768;12.124;2023-03-17T09:36:29;4.43;;;2.30;;
64011;SDS011;50211;52.768;12.124;2023-03-17T09:38:57;3.42;;;2.17;;
64011;SDS011;50211;52.768;12.124;2023-03-17T09:52:02;8.18;;;2.35;;
64011;SDS011;50211;52.768;12.124;2023-03-17T09:54:30;4.32;;;1.65;;
64011;SDS011;50211;52.768;12.124;2023-03-17T09:59:54;4.82;;;1.92;;
64011;SDS011;50211;52.768;12.124;2023-03-17T10:02:42;3.45;;;1.90;;
64011;SDS011;50211;52.768;12.124;2023-03-17T10:16:13;3.78;;;2.35;;
64011;SDS011;50211;52.768;12.124;2023-03-17T10:18:47;3.95;;;2.58;;
64011;SDS011;50211;52.768;12.124;2023-03-17T10:21:31;5.75;;;2.30;;
64011;SDS011;50211;52.768;12.124;2023-03-17T10:23:59;3.95;;;2.17;;
64011;SDS011;50211;52.768;12.124;2023-03-17T10:28:58;2.95;;;1.85;;
64011;SDS011;50211;52.768;12.124;2023-03-17T10:31:29;4.63;;;2.15;;
64011;SDS011;50211;52.768;12.124;2023-03-17T10:34:15;2.58;;;1.70;;
64011;SDS011;50211;52.768;12.124;2023-03-17T10:36:48;4.80;;;1.98;;
64011;SDS011;50211;52.768;12.124;2023-03-17T10:39:20;3.65;;;1.75;;
64011;SDS011;50211;52.768;12.124;2023-03-17T10:47:03;3.30;;;1.92;;
64011;SDS011;50211;52.768;12.124;2023-03-17T10:49:31;3.63;;;1.83;;
64011;SDS011;50211;52.768;12.124;2023-03-17T10:52:00;4.40;;;2.00;;
64011;SDS011;50211;52.768;12.124;2023-03-17T10:54:33;3.15;;;2.00;;
64011;SDS011;50211;52.768;12.124;2023-03-17T10:57:01;3.67;;;1.73;;
64011;SDS011;50211;52.768;12.124;2023-03-17T10:59:31;3.42;;;1.70;;
64011;SDS011;50211;52.768;12.124;2023-03-17T11:02:14;3.85;;;1.80;;
64011;SDS011;50211;52.768;12.124;2023-03-17T11:04:51;4.88;;;2.38;;
64011;SDS011;50211;52.768;12.124;2023-03-17T11:07:39;5.43;;;1.80;;
64011;SDS011;50211;52.768;12.124;2023-03-17T11:10:26;2.65;;;1.63;;
64011;SDS011;50211;52.768;12.124;2023-03-17T11:12:57;2.85;;;1.65;;
64011;SDS011;50211;52.768;12.124;2023-03-17T11:15:32;4.88;;;2.10;;
64011;SDS011;50211;52.768;12.124;2023-03-17T11:20:44;4.00;;;1.80;;
64011;SDS011;50211;52.768;12.124;2023-03-17T11:25:46;2.72;;;1.95;;
64011;SDS011;50211;52.768;12.124;2023-03-17T11:28:25;3.53;;;1.73;;
64011;SDS011;50211;52.768;12.124;2023-03-17T11:31:16;3.72;;;1.70;;
64011;SDS011;50211;52.768;12.124;2023-03-17T11:34:06;3.33;;;1.65;;
64011;SDS011;50211;52.768;12.124;2023-03-17T11:37:19;4.80;;;1.90;;
64011;SDS011;50211;52.768;12.124;2023-03-17T11:39:49;4.30;;;1.95;;
64011;SDS011;50211;52.768;12.124;2023-03-17T11:42:42;2.60;;;1.70;;
64011;SDS011;50211;52.768;12.124;2023-03-17T11:45:41;4.78;;;1.80;;
64011;SDS011;50211;52.768;12.124;2023-03-17T11:51:08;5.07;;;1.75;;
64011;SDS011;50211;52.768;12.124;2023-03-17T11:53:56;4.78;;;1.45;;
64011;SDS011;50211;52.768;12.124;2023-03-17T11:56:38;1.80;;;1.33;;
64011;SDS011;50211;52.768;12.124;2023-03-17T11:59:27;2.72;;;1.58;;
64011;SDS011;50211;52.768;12.124;2023-03-17T12:02:15;5.07;;;1.35;;
64011;SDS011;50211;52.768;12.124;2023-03-17T12:05:21;2.50;;;1.65;;
64011;SDS011;50211;52.768;12.124;2023-03-17T12:08:04;2.90;;;1.38;;
64011;SDS011;50211;52.768;12.124;2023-03-17T12:10:45;2.35;;;1.40;;
64011;SDS011;50211;52.768;12.124;2023-03-17T12:13:20;2.65;;;1.42;;
64011;SDS011;50211;52.768;12.124;2023-03-17T12:15:50;3.58;;;1.40;;
64011;SDS011;50211;52.768;12.124;2023-03-17T12:18:22;4.28;;;1.70;;
64011;SDS011;50211;52.768;12.124;2023-03-17T12:20:58;2.55;;;1.60;;
64011;SDS011;50211;52.768;12.124;2023-03-17T12:23:50;2.35;;;1.55;;
64011;SDS011;50211;52.768;12.124;2023-03-17T12:26:35;2.83;;;1.65;;
64011;SDS011;50211;52.768;12.124;2023-03-17T12:34:50;5.80;;;1.73;;
64011;SDS011;50211;52.768;12.124;2023-03-17T12:37:19;3.58;;;1.50;;
64011;SDS011;50211;52.768;12.124;2023-03-17T12:39:53;4.13;;;1.30;;
64011;SDS011;50211;52.768;12.124;2023-03-17T12:42:36;2.28;;;1.15;;
64011;SDS011;50211;52.768;12.124;2023-03-17T12:45:25;2.80;;;1.58;;
64011;SDS011;50211;52.768;12.124;2023-03-17T12:53:35;3.65;;;1.95;;
64011;SDS011;50211;52.768;12.124;2023-03-17T12:59:00;1.98;;;1.50;;
64011;SDS011;50211;52.768;12.124;2023-03-17T13:06:53;1.75;;;1.58;;
64011;SDS011;50211;52.768;12.124;2023-03-17T13:09:28;3.13;;;1.58;;
64011;SDS011;50211;52.768;12.124;2023-03-17T13:11:59;3.92;;;1.85;;
64011;SDS011;50211;52.768;12.124;2023-03-17T13:17:04;4.10;;;1.60;;
64011;SDS011;50211;52.768;12.124;2023-03-17T13:22:30;4.35;;;1.90;;
64011;SDS011;50211;52.768;12.124;2023-03-17T13:25:13;4.40;;;1.55;;
64011;SDS011;50211;52.768;12.124;2023-03-17T13:27:45;4.43;;;1.83;;
64011;SDS011;50211;52.768;12.124;2023-03-17T13:33:01;8.70;;;1.92;;
64011;SDS011;50211;52.768;12.124;2023-03-17T13:38:22;3.80;;;2.13;;
64011;SDS011;50211;52.768;12.124;2023-03-17T13:49:12;3.83;;;2.05;;
64011;SDS011;50211;52.768;12.124;2023-03-17T13:51:54;3.60;;;1.77;;
64011;SDS011;50211;52.768;12.124;2023-03-17T13:54:32;4.00;;;2.00;;
64011;SDS011;50211;52.768;12.124;2023-03-17T13:57:21;3.70;;;1.92;;
64011;SDS011;50211;52.768;12.124;2023-03-17T13:59:58;4.18;;;1.95;;
64011;SDS011;50211;52.768;12.124;2023-03-17T14:02:25;5.43;;;2.10;;
64011;SDS011;50211;52.768;12.124;2023-03-17T14:04:59;4.57;;;2.05;;
64011;SDS011;50211;52.768;12.124;2023-03-17T14:07:29;3.92;;;2.28;;
64011;SDS011;50211;52.768;12.124;2023-03-17T14:10:16;4.55;;;2.40;;
64011;SDS011;50211;52.768;12.124;2023-03-17T14:12:55;5.78;;;2.22;;
64011;SDS011;50211;52.768;12.124;2023-03-17T14:15:27;5.25;;;2.30;;
64011;SDS011;50211;52.768;12.124;2023-03-17T14:18:01;4.55;;;2.50;;
64011;SDS011;50211;52.768;12.124;2023-03-17T14:20:34;3.90;;;2.20;;
64011;SDS011;50211;52.768;12.124;2023-03-17T14:23:00;4.38;;;2.28;;
64011;SDS011;50211;52.768;12.124;2023-03-17T14:25:36;3.60;;;1.85;;
64011;SDS011;50211;52.768;12.124;2023-03-17T14:28:03;4.10;;;2.78;;
64011;SDS011;50211;52.768;12.124;2023-03-17T14:30:31;6.20;;;2.95;;
64011;SDS011;50211;52.768;12.124;2023-03-17T14:33:03;5.20;;;2.42;;
64011;SDS011;50211;52.768;12.124;2023-03-17T14:35:50;4.15;;;2.30;;
64011;SDS011;50211;52.768;12.124;2023-03-17T14:38:19;4.85;;;2.80;;
64011;SDS011;50211;52.768;12.124;2023-03-17T14:40:47;4.38;;;2.65;;
64011;SDS011;50211;52.768;12.124;2023-03-17T14:43:14;4.78;;;2.47;;
64011;SDS011;50211;52.768;12.124;2023-03-17T14:45:47;4.50;;;2.67;;
64011;SDS011;50211;52.768;12.124;2023-03-17T14:48:24;5.13;;;2.63;;
64011;SDS011;50211;52.768;12.124;2023-03-17T14:50:52;7.50;;;2.60;;
64011;SDS011;50211;52.768;12.124;2023-03-17T14:53:20;6.13;;;2.70;;
64011;SDS011;50211;52.768;12.124;2023-03-17T14:55:48;5.78;;;2.88;;
64011;SDS011;50211;52.768;12.124;2023-03-17T14:58:23;7.68;;;3.17;;
64011;SDS011;50211;52.768;12.124;2023-03-17T15:00:55;5.57;;;3.05;;
64011;SDS011;50211;52.768;12.124;2023-03-17T15:03:27;5.15;;;2.60;;
64011;SDS011;50211;52.768;12.124;2023-03-17T15:08:48;6.32;;;2.42;;
64011;SDS011;50211;52.768;12.124;2023-03-17T15:11:19;4.63;;;2.80;;
64011;SDS011;50211;52.768;12.124;2023-03-17T15:13:47;6.95;;;2.65;;
64011;SDS011;50211;52.768;12.124;2023-03-17T15:16:15;7.32;;;3.20;;
64011;SDS011;50211;52.768;12.124;2023-03-17T15:18:45;6.97;;;2.95;;
64011;SDS011;50211;52.768;12.124;2023-03-17T15:24:04;5.13;;;2.65;;
64011;SDS011;50211;52.768;12.124;2023-03-17T15:26:43;4.00;;;2.45;;
64011;SDS011;50211;52.768;12.124;2023-03-17T15:29:08;8.35;;;2.90;;
64011;SDS011;50211;52.768;12.124;2023-03-17T15:31:34;4.82;;;2.22;;
64011;SDS011;50211;52.768;12.124;2023-03-17T15:33:59;7.35;;;2.47;;
64011;SDS011;50211;52.768;12.124;2023-03-17T15:36:25;5.90;;;2.78;;
64011;SDS011;50211;52.768;12.124;2023-03-17T15:38:52;4.82;;;2.53;;
64011;SDS011;50211;52.768;12.124;2023-03-17T15:41:17;5.35;;;2.67;;
64011;SDS011;50211;52.768;12.124;2023-03-17T15:43:43;8.63;;;2.65;;
64011;SDS011;50211;52.768;12.124;2023-03-17T15:46:13;4.88;;;2.80;;
64011;SDS011;50211;52.768;12.124;2023-03-17T15:48:48;6.28;;;2.78;;
64011;SDS011;50211;52.768;12.124;2023-03-17T15:51:14;6.25;;;3.03;;
64011;SDS011;50211;52.768;12.124;2023-03-17T15:53:40;8.60;;;3.25;;
64011;SDS011;50211;52.768;12.124;2023-03-17T15:56:11;5.13;;;2.90;;
64011;SDS011;50211;52.768;12.124;2023-03-17T15:58:40;5.35;;;2.58;;
64011;SDS011;50211;52.768;12.124;2023-03-17T16:01:07;5.35;;;2.88;;
64011;SDS011;50211;52.768;12.124;2023-03-17T16:03:35;3.60;;;2.28;;
64011;SDS011;50211;52.768;12.124;2023-03-17T16:06:01;6.47;;;2.50;;
64011;SDS011;50211;52.768;12.124;2023-03-17T16:08:31;4.85;;;3.00;;
64011;SDS011;50211;52.768;12.124;2023-03-17T16:10:57;7.03;;;4.28;;
64011;SDS011;50211;52.768;12.124;2023-03-17T16:13:23;3.58;;;2.47;;
64011;SDS011;50211;52.768;12.124;2023-03-17T16:15:55;4.18;;;2.55;;
64011;SDS011;50211;52.768;12.124;2023-03-17T16:18:27;9.18;;;2.40;;